createdAt,value
2023-02-18T00:00:17.425Z,11.35
2023-02-18T00:00:49.079Z,11.31
2023-02-18T00:01:22.620Z,11.39
2023-02-18T00:01:54.289Z,11.42
2023-02-18T00:02:26.315Z,11.47
2023-02-18T00:02:58.050Z,11.46
2023-02-18T00:03:30.131Z,11.44
2023-02-18T00:04:02.331Z,11.42
2023-02-18T00:04:34.242Z,11.42
2023-02-18T00:05:06.177Z,11.43
2023-02-18T00:05:37.837Z,11.46
2023-02-18T00:06:25.013Z,11.49
2023-02-18T00:06:56.660Z,11.50
2023-02-18T00:07:28.353Z,11.48
2023-02-18T00:07:59.966Z,11.47
2023-02-18T00:08:31.595Z,11.48
2023-02-18T00:09:04.952Z,11.45
2023-02-18T00:09:38.700Z,11.44
2023-02-18T00:10:13.830Z,11.43
2023-02-18T00:10:45.832Z,11.42
2023-02-18T00:11:20.145Z,11.45
2023-02-18T00:11:53.544Z,11.46
2023-02-18T00:12:25.197Z,11.45
2023-02-18T00:12:56.858Z,11.44
2023-02-18T00:13:28.471Z,11.45
2023-02-18T00:14:02.529Z,11.48
2023-02-18T00:14:34.162Z,11.46
2023-02-18T00:15:06.739Z,11.44
2023-02-18T00:15:39.575Z,11.46
2023-02-18T00:16:13.048Z,11.48
2023-02-18T00:16:45.921Z,11.52
2023-02-18T00:17:17.605Z,11.57
2023-02-18T00:17:49.284Z,11.57
2023-02-18T00:18:20.908Z,11.56
2023-02-18T00:18:56.367Z,11.56
2023-02-18T00:19:28.039Z,11.56
2023-02-18T00:19:59.795Z,11.58
2023-02-18T00:20:33.569Z,11.58
2023-02-18T00:21:07.034Z,11.57
2023-02-18T00:21:38.792Z,11.59
2023-02-18T00:22:10.438Z,11.61
2023-02-18T00:22:42.118Z,11.59
2023-02-18T00:23:13.769Z,11.60
2023-02-18T00:23:45.423Z,11.60
2023-02-18T00:24:17.476Z,11.64
2023-02-18T00:24:49.709Z,11.61
2023-02-18T00:25:21.406Z,11.62
2023-02-18T00:26:04.268Z,11.67
2023-02-18T00:26:36.591Z,11.67
2023-02-18T00:27:08.449Z,11.67
2023-02-18T00:27:40.096Z,11.67
2023-02-18T00:28:11.743Z,11.67
2023-02-18T00:28:43.686Z,11.66
2023-02-18T00:29:15.343Z,11.72
2023-02-18T00:29:46.980Z,11.75
2023-02-18T00:30:18.701Z,11.80
2023-02-18T00:30:50.397Z,11.82
2023-02-18T00:31:25.477Z,11.85
2023-02-18T00:31:57.311Z,11.85
2023-02-18T00:32:29.171Z,11.86
2023-02-18T00:33:00.832Z,11.86
2023-02-18T00:33:32.487Z,11.85
2023-02-18T00:34:05.852Z,11.83
2023-02-18T00:34:37.497Z,11.84
2023-02-18T00:35:09.642Z,11.83
2023-02-18T00:35:41.285Z,11.85
2023-02-18T00:36:15.882Z,11.86
2023-02-18T00:36:47.523Z,11.85
2023-02-18T00:37:19.236Z,11.83
2023-02-18T00:37:54.062Z,11.86
2023-02-18T00:38:25.735Z,11.88
2023-02-18T00:39:00.041Z,11.88
2023-02-18T00:39:31.708Z,11.87
2023-02-18T00:40:03.912Z,11.88
2023-02-18T00:40:39.610Z,11.88
2023-02-18T00:41:11.320Z,11.90
2023-02-18T00:41:43.996Z,11.91
2023-02-18T00:42:15.703Z,11.91
2023-02-18T00:42:47.380Z,11.91
2023-02-18T00:43:19.016Z,11.92
2023-02-18T00:43:51.297Z,11.92
2023-02-18T00:44:23.087Z,11.96
2023-02-18T00:44:54.778Z,12.00
2023-02-18T00:45:26.397Z,11.99
2023-02-18T00:45:58.075Z,11.98
2023-02-18T00:46:30.472Z,11.95
2023-02-18T00:47:02.180Z,11.96
2023-02-18T00:47:33.817Z,11.99
2023-02-18T00:48:05.639Z,11.99
2023-02-18T00:48:37.345Z,12.00
2023-02-18T00:49:09.753Z,11.99
2023-02-18T00:49:41.427Z,12.02
2023-02-18T00:50:13.087Z,12.03
2023-02-18T00:50:45.366Z,12.02
2023-02-18T00:51:17.062Z,12.09
2023-02-18T00:51:48.695Z,12.08
2023-02-18T00:52:20.314Z,12.07
2023-02-18T00:52:51.944Z,12.10
2023-02-18T00:53:24.664Z,12.11
2023-02-18T00:53:57.590Z,12.14
2023-02-18T00:54:29.279Z,12.11
2023-02-18T00:55:00.927Z,12.09
2023-02-18T00:55:32.590Z,12.08
2023-02-18T00:56:04.816Z,12.08
2023-02-18T00:56:36.776Z,12.08
2023-02-18T00:57:08.467Z,12.10
2023-02-18T00:57:40.127Z,12.10
2023-02-18T00:58:11.777Z,12.09
2023-02-18T00:58:43.670Z,12.10
2023-02-18T00:59:15.327Z,12.09
2023-02-18T00:59:46.955Z,12.09
2023-02-18T01:00:18.919Z,12.09
2023-02-18T01:00:51.016Z,12.10
2023-02-18T01:01:23.191Z,12.07
2023-02-18T01:01:54.964Z,12.07
2023-02-18T01:02:26.621Z,12.08
2023-02-18T01:02:58.313Z,12.09
2023-02-18T01:03:30.066Z,12.09
2023-02-18T01:04:01.708Z,12.07
2023-02-18T01:04:33.378Z,12.09
2023-02-18T01:05:05.390Z,12.10
2023-02-18T01:05:38.656Z,12.09
2023-02-18T01:06:12.010Z,12.09
2023-02-18T01:06:43.677Z,12.05
2023-02-18T01:07:15.332Z,12.07
2023-02-18T01:07:47.072Z,12.09
2023-02-18T01:08:20.940Z,12.11
2023-02-18T01:08:52.802Z,12.13
2023-02-18T01:09:25.859Z,12.15
2023-02-18T01:09:57.554Z,12.15
2023-02-18T01:10:29.234Z,12.14
2023-02-18T01:11:01.545Z,12.17
2023-02-18T01:11:33.314Z,12.17
2023-02-18T01:12:05.421Z,12.17
2023-02-18T01:12:37.073Z,12.15
2023-02-18T01:13:08.885Z,12.13
2023-02-18T01:13:41.296Z,12.14
2023-02-18T01:14:13.071Z,12.14
2023-02-18T01:14:44.842Z,12.12
2023-02-18T01:15:17.676Z,12.15
2023-02-18T01:15:49.686Z,12.18
2023-02-18T01:16:21.364Z,12.16
2023-02-18T01:16:53.078Z,12.17
2023-02-18T01:17:24.714Z,12.17
2023-02-18T01:17:56.366Z,12.18
2023-02-18T01:18:28.185Z,12.21
2023-02-18T01:18:59.843Z,12.20
2023-02-18T01:19:31.788Z,12.19
2023-02-18T01:20:03.722Z,12.22
2023-02-18T01:20:36.900Z,12.23
2023-02-18T01:21:09.617Z,12.20
2023-02-18T01:21:41.258Z,12.20
2023-02-18T01:22:13.001Z,12.22
2023-02-18T01:22:45.188Z,12.21
2023-02-18T01:23:17.271Z,12.22
2023-02-18T01:23:48.951Z,12.23
2023-02-18T01:24:20.589Z,12.26
2023-02-18T01:24:52.594Z,12.26
2023-02-18T01:25:24.228Z,12.27
2023-02-18T01:25:57.973Z,12.29
2023-02-18T01:26:29.721Z,12.27
2023-02-18T01:27:01.350Z,12.31
2023-02-18T01:27:32.979Z,12.31
2023-02-18T01:28:06.840Z,12.32
2023-02-18T01:28:40.827Z,12.33
2023-02-18T01:29:12.568Z,12.34
2023-02-18T01:29:44.326Z,12.34
2023-02-18T01:30:18.110Z,12.35
2023-02-18T01:30:51.329Z,12.33
2023-02-18T01:31:23.642Z,12.35
2023-02-18T01:31:55.573Z,12.33
2023-02-18T01:32:27.388Z,12.36
2023-02-18T01:32:59.607Z,12.36
2023-02-18T01:33:31.246Z,12.36
2023-02-18T01:34:02.931Z,12.38
2023-02-18T01:34:34.871Z,12.36
2023-02-18T01:35:07.716Z,12.39
2023-02-18T01:35:41.221Z,12.41
2023-02-18T01:36:13.559Z,12.45
2023-02-18T01:36:45.246Z,12.51
2023-02-18T01:37:16.891Z,12.50
2023-02-18T01:37:48.739Z,12.54
2023-02-18T01:38:20.374Z,12.54
2023-02-18T01:38:53.342Z,12.54
2023-02-18T01:39:25.025Z,12.53
2023-02-18T01:39:56.686Z,12.52
2023-02-18T01:40:30.142Z,12.49
2023-02-18T01:41:02.055Z,12.50
2023-02-18T01:41:34.043Z,12.49
2023-02-18T01:42:06.230Z,12.50
2023-02-18T01:42:38.228Z,12.48
2023-02-18T01:43:11.836Z,12.50
2023-02-18T01:43:43.517Z,12.48
2023-02-18T01:44:15.143Z,12.48
2023-02-18T01:44:48.834Z,12.48
2023-02-18T01:45:35.503Z,12.48
2023-02-18T01:46:21.933Z,12.47
2023-02-18T01:46:53.837Z,12.50
2023-02-18T01:47:25.522Z,12.48
2023-02-18T01:47:57.568Z,12.46
2023-02-18T01:48:43.953Z,12.45
2023-02-18T01:49:30.623Z,12.46
2023-02-18T01:50:02.295Z,12.43
2023-02-18T01:50:37.032Z,12.41
2023-02-18T01:51:23.848Z,12.44
2023-02-18T01:52:22.946Z,12.42
2023-02-18T01:52:54.733Z,12.39
2023-02-18T01:53:33.185Z,12.38
2023-02-18T01:54:08.355Z,12.38
2023-02-18T01:54:44.629Z,12.35
2023-02-18T01:55:16.546Z,12.37
2023-02-18T01:55:49.394Z,12.34
2023-02-18T01:56:27.895Z,12.33
2023-02-18T01:57:10.633Z,12.34
2023-02-18T01:57:42.590Z,12.32
2023-02-18T01:58:15.177Z,12.32
2023-02-18T01:58:47.856Z,12.31
2023-02-18T01:59:26.314Z,12.29
2023-02-18T02:00:08.303Z,12.29
2023-02-18T02:00:40.591Z,12.28
2023-02-18T02:01:12.688Z,12.28
2023-02-18T02:01:45.936Z,12.25
2023-02-18T02:02:20.914Z,12.27
2023-02-18T02:02:53.706Z,12.29
2023-02-18T02:03:25.383Z,12.29
2023-02-18T02:03:57.138Z,12.31
2023-02-18T02:04:29.164Z,12.32
2023-02-18T02:05:01.110Z,12.34
2023-02-18T02:05:34.588Z,12.30
2023-02-18T02:06:16.760Z,12.32
2023-02-18T02:06:48.764Z,12.30
2023-02-18T02:07:23.614Z,12.32
2023-02-18T02:07:55.857Z,12.36
2023-02-18T02:08:29.223Z,12.37
2023-02-18T02:09:06.785Z,12.44
2023-02-18T02:09:41.073Z,12.52
2023-02-18T02:10:15.504Z,12.55
2023-02-18T02:11:03.268Z,12.65
2023-02-18T02:11:34.835Z,12.66
2023-02-18T02:12:09.282Z,12.65
2023-02-18T02:12:56.174Z,12.72
2023-02-18T02:13:33.704Z,12.74
2023-02-18T02:14:17.455Z,12.80
2023-02-18T02:15:12.431Z,12.90
2023-02-18T02:15:51.191Z,12.98
2023-02-18T02:16:34.977Z,12.98
2023-02-18T02:17:31.480Z,13.03
2023-02-18T02:18:24.082Z,13.06
2023-02-18T02:19:29.896Z,13.11
2023-02-18T02:20:33.635Z,13.16
2023-02-18T02:21:32.707Z,13.26
2023-02-18T02:22:25.904Z,13.29
2023-02-18T02:23:17.611Z,13.35
2023-02-18T02:24:01.292Z,13.35
2023-02-18T02:25:08.508Z,13.41
2023-02-18T02:25:46.184Z,13.44
2023-02-18T02:26:43.812Z,13.44
2023-02-18T02:27:42.859Z,13.47
2023-02-18T02:28:33.011Z,13.45
2023-02-18T02:29:42.065Z,13.48
2023-02-18T02:30:45.742Z,13.50
2023-02-18T02:31:47.550Z,13.55
2023-02-18T02:32:56.371Z,13.57
2023-02-18T02:33:56.054Z,13.66
2023-02-18T02:35:02.534Z,13.66
2023-02-18T02:35:38.778Z,13.69
2023-02-18T02:36:33.019Z,13.65
2023-02-18T02:37:07.384Z,13.64
2023-02-18T02:38:04.642Z,13.64
2023-02-18T02:38:51.232Z,13.62
2023-02-18T02:39:25.617Z,13.65
2023-02-18T02:40:43.436Z,13.68
2023-02-18T02:41:27.598Z,13.62
2023-02-18T02:42:19.474Z,13.60
2023-02-18T02:42:56.799Z,13.66
2023-02-18T02:43:35.622Z,13.66
2023-02-18T02:44:43.723Z,13.67
2023-02-18T02:45:22.382Z,13.64
2023-02-18T02:46:11.734Z,13.65
2023-02-18T02:46:51.635Z,13.65
2023-02-18T02:47:46.258Z,13.60
2023-02-18T02:48:51.756Z,13.66
2023-02-18T02:49:45.306Z,13.64
2023-02-18T02:50:38.891Z,13.69
2023-02-18T02:51:22.748Z,13.70
2023-02-18T02:52:06.057Z,13.68
2023-02-18T02:52:46.054Z,13.65
2023-02-18T02:53:25.212Z,13.67
2023-02-18T02:54:11.292Z,13.65
2023-02-18T02:54:43.225Z,13.60
2023-02-18T02:55:14.938Z,13.60
2023-02-18T02:55:47.306Z,13.60
2023-02-18T02:56:24.729Z,13.62
2023-02-18T02:57:26.872Z,13.60
2023-02-18T02:57:58.668Z,13.61
2023-02-18T02:58:30.506Z,13.60
2023-02-18T02:59:06.254Z,13.61
2023-02-18T02:59:43.137Z,13.61
2023-02-18T03:00:18.348Z,13.61
2023-02-18T03:00:49.991Z,13.66
2023-02-18T03:01:58.146Z,13.67
2023-02-18T03:02:52.780Z,13.64
2023-02-18T03:03:43.975Z,13.62
2023-02-18T03:04:24.429Z,13.63
2023-02-18T03:05:28.212Z,13.59
2023-02-18T03:06:30.581Z,13.60
2023-02-18T03:07:17.285Z,13.61
2023-02-18T03:08:07.126Z,13.55
2023-02-18T03:08:59.981Z,13.58
2023-02-18T03:09:59.168Z,13.56
2023-02-18T03:10:59.672Z,13.55
2023-02-18T03:11:47.383Z,13.56
2023-02-18T03:12:36.235Z,13.56
2023-02-18T03:13:38.203Z,13.53
2023-02-18T03:14:27.833Z,13.57
2023-02-18T03:15:15.367Z,13.60
2023-02-18T03:15:49.871Z,13.62
2023-02-18T03:16:24.508Z,13.66
2023-02-18T03:17:21.872Z,13.70
2023-02-18T03:18:01.938Z,13.64
2023-02-18T03:18:41.413Z,13.62
2023-02-18T03:19:38.567Z,13.58
2023-02-18T03:20:28.264Z,13.54
2023-02-18T03:21:21.336Z,13.61
2023-02-18T03:22:06.558Z,13.66
2023-02-18T03:22:43.837Z,13.67
2023-02-18T03:23:20.803Z,13.67
2023-02-18T03:24:06.391Z,13.66
2023-02-18T03:24:42.496Z,13.62
2023-02-18T03:25:17.051Z,13.65
2023-02-18T03:25:50.894Z,13.68
2023-02-18T03:26:26.489Z,13.74
2023-02-18T03:27:09.776Z,13.76
2023-02-18T03:27:49.495Z,13.74
2023-02-18T03:28:27.261Z,13.75
2023-02-18T03:29:04.647Z,13.75
2023-02-18T03:29:37.345Z,13.75
2023-02-18T03:30:15.976Z,13.73
2023-02-18T03:31:03.577Z,13.75
2023-02-18T03:31:40.648Z,13.78
2023-02-18T03:32:17.746Z,13.78
2023-02-18T03:32:56.480Z,13.77
2023-02-18T03:33:40.785Z,13.78
2023-02-18T03:34:18.617Z,13.79
2023-02-18T03:35:00.790Z,13.76
2023-02-18T03:35:32.854Z,13.78
2023-02-18T03:36:05.019Z,13.79
2023-02-18T03:36:37.872Z,13.75
2023-02-18T03:37:12.099Z,13.76
2023-02-18T03:38:16.090Z,13.75
2023-02-18T03:39:11.487Z,13.75
2023-02-18T03:39:48.886Z,13.74
2023-02-18T03:40:21.007Z,13.72
2023-02-18T03:40:52.725Z,13.72
2023-02-18T03:41:24.478Z,13.69
2023-02-18T03:41:56.516Z,13.69
2023-02-18T03:42:29.804Z,13.69
2023-02-18T03:43:01.480Z,13.69
2023-02-18T03:43:34.220Z,13.69
2023-02-18T03:44:08.131Z,13.70
2023-02-18T03:44:39.760Z,13.69
2023-02-18T03:45:11.653Z,13.69
2023-02-18T03:45:43.328Z,13.71
2023-02-18T03:46:15.063Z,13.70
2023-02-18T03:46:47.431Z,13.69
2023-02-18T03:47:19.423Z,13.71
2023-02-18T03:47:51.266Z,13.73
2023-02-18T03:48:23.417Z,13.71
2023-02-18T03:48:55.283Z,13.73
2023-02-18T03:49:27.169Z,13.74
2023-02-18T03:49:58.792Z,13.75
2023-02-18T03:50:30.427Z,13.73
2023-02-18T03:51:02.095Z,13.74
2023-02-18T03:51:33.721Z,13.73
2023-02-18T03:52:05.365Z,13.71
2023-02-18T03:52:37.136Z,13.71
2023-02-18T03:53:08.794Z,13.68
2023-02-18T03:53:40.473Z,13.71
2023-02-18T03:54:14.358Z,13.69
2023-02-18T03:54:46.071Z,13.69
2023-02-18T03:55:18.095Z,13.67
2023-02-18T03:55:49.742Z,13.67
2023-02-18T03:56:21.514Z,13.67
2023-02-18T03:56:53.151Z,13.66
2023-02-18T03:57:24.806Z,13.66
2023-02-18T03:57:56.486Z,13.61
2023-02-18T03:58:28.185Z,13.62
2023-02-18T03:58:59.827Z,13.62
2023-02-18T03:59:31.471Z,13.59
2023-02-18T04:00:06.704Z,13.60
2023-02-18T04:00:38.432Z,13.58
2023-02-18T04:01:10.189Z,13.59
2023-02-18T04:01:41.953Z,13.57
2023-02-18T04:02:13.571Z,13.55
2023-02-18T04:02:45.227Z,13.57
2023-02-18T04:03:16.888Z,13.57
2023-02-18T04:03:48.601Z,13.56
2023-02-18T04:04:20.285Z,13.54
2023-02-18T04:04:52.093Z,13.54
2023-02-18T04:05:23.715Z,13.54
2023-02-18T04:05:55.508Z,13.50
2023-02-18T04:06:27.145Z,13.50
2023-02-18T04:06:58.877Z,13.49
2023-02-18T04:07:30.606Z,13.52
2023-02-18T04:08:02.255Z,13.50
2023-02-18T04:08:34.224Z,13.49
2023-02-18T04:09:09.091Z,13.47
2023-02-18T04:09:41.018Z,13.47
2023-02-18T04:10:13.058Z,13.43
2023-02-18T04:10:44.684Z,13.44
2023-02-18T04:11:16.648Z,13.46
2023-02-18T04:11:48.286Z,13.43
2023-02-18T04:12:19.918Z,13.41
2023-02-18T04:12:51.584Z,13.40
2023-02-18T04:13:23.397Z,13.39
2023-02-18T04:13:55.013Z,13.35
2023-02-18T04:14:26.690Z,13.35
2023-02-18T04:14:58.345Z,13.32
2023-02-18T04:15:30.454Z,13.32
2023-02-18T04:16:02.111Z,13.33
2023-02-18T04:16:33.912Z,13.30
2023-02-18T04:17:05.724Z,13.31
2023-02-18T04:17:37.389Z,13.30
2023-02-18T04:18:09.053Z,13.32
2023-02-18T04:18:40.781Z,13.33
2023-02-18T04:19:12.464Z,13.31
2023-02-18T04:19:44.084Z,13.32
2023-02-18T04:20:16.616Z,13.29
2023-02-18T04:20:48.633Z,13.28
2023-02-18T04:21:20.295Z,13.25
2023-02-18T04:21:51.980Z,13.28
2023-02-18T04:22:23.666Z,13.25
2023-02-18T04:22:55.368Z,13.28
2023-02-18T04:23:27.100Z,13.24
2023-02-18T04:23:58.759Z,13.24
2023-02-18T04:24:30.356Z,13.21
2023-02-18T04:25:01.983Z,13.22
2023-02-18T04:25:34.135Z,13.22
2023-02-18T04:26:05.922Z,13.20
2023-02-18T04:26:37.607Z,13.19
2023-02-18T04:27:09.280Z,13.15
2023-02-18T04:27:41.160Z,13.14
2023-02-18T04:28:16.721Z,13.14
2023-02-18T04:28:48.527Z,13.14
2023-02-18T04:29:20.346Z,13.16
2023-02-18T04:29:52.410Z,13.12
2023-02-18T04:30:24.108Z,13.13
2023-02-18T04:30:55.887Z,13.11
2023-02-18T04:31:27.727Z,13.09
2023-02-18T04:31:59.452Z,13.10
2023-02-18T04:32:31.100Z,13.10
2023-02-18T04:33:02.732Z,13.11
2023-02-18T04:33:34.414Z,13.10
2023-02-18T04:34:06.233Z,13.09
2023-02-18T04:34:38.463Z,13.07
2023-02-18T04:35:10.126Z,13.08
2023-02-18T04:35:42.053Z,13.10
2023-02-18T04:36:13.839Z,13.09
2023-02-18T04:36:45.582Z,13.08
2023-02-18T04:37:17.346Z,13.08
2023-02-18T04:37:49.234Z,13.07
2023-02-18T04:38:20.989Z,13.05
2023-02-18T04:38:52.644Z,13.05
2023-02-18T04:39:24.701Z,13.05
2023-02-18T04:39:56.450Z,13.05
2023-02-18T04:40:30.660Z,13.03
2023-02-18T04:41:02.340Z,13.04
2023-02-18T04:41:34.185Z,13.04
2023-02-18T04:42:09.046Z,13.02
2023-02-18T04:42:41.221Z,13.00
2023-02-18T04:43:12.902Z,13.00
2023-02-18T04:43:44.576Z,12.98
2023-02-18T04:44:16.226Z,12.96
2023-02-18T04:44:47.857Z,12.96
2023-02-18T04:45:19.494Z,12.97
2023-02-18T04:45:51.184Z,12.97
2023-02-18T04:46:22.968Z,12.93
2023-02-18T04:46:54.655Z,12.93
2023-02-18T04:47:26.936Z,12.91
2023-02-18T04:47:58.619Z,12.94
2023-02-18T04:48:30.742Z,12.87
2023-02-18T04:49:02.362Z,12.87
2023-02-18T04:49:34.671Z,12.89
2023-02-18T04:50:07.060Z,12.88
2023-02-18T04:50:39.470Z,12.86
2023-02-18T04:51:11.167Z,12.87
2023-02-18T04:51:42.851Z,12.87
2023-02-18T04:52:14.644Z,12.87
2023-02-18T04:52:46.296Z,12.88
2023-02-18T04:53:17.973Z,12.87
2023-02-18T04:53:49.648Z,12.89
2023-02-18T04:54:21.282Z,12.89
2023-02-18T04:54:52.917Z,12.87
2023-02-18T04:55:24.572Z,12.87
2023-02-18T04:55:56.215Z,12.86
2023-02-18T04:56:27.853Z,12.86
2023-02-18T04:56:59.634Z,12.87
2023-02-18T04:57:31.265Z,12.88
2023-02-18T04:58:02.906Z,12.84
2023-02-18T04:58:34.640Z,12.85
2023-02-18T04:59:06.331Z,12.86
2023-02-18T04:59:40.078Z,12.84
2023-02-18T05:00:16.042Z,12.85
2023-02-18T05:00:47.957Z,12.86
2023-02-18T05:01:19.719Z,12.84
2023-02-18T05:01:51.416Z,12.84
2023-02-18T05:02:23.171Z,12.82
2023-02-18T05:02:54.875Z,12.81
2023-02-18T05:03:27.479Z,12.78
2023-02-18T05:03:59.169Z,12.80
2023-02-18T05:04:30.907Z,12.81
2023-02-18T05:05:02.614Z,12.81
2023-02-18T05:05:34.306Z,12.78
2023-02-18T05:06:06.461Z,12.78
2023-02-18T05:06:39.927Z,12.78
2023-02-18T05:07:11.549Z,12.80
2023-02-18T05:07:43.236Z,12.81
2023-02-18T05:08:16.322Z,12.80
2023-02-18T05:08:48.024Z,12.76
2023-02-18T05:09:19.670Z,12.81
2023-02-18T05:09:51.525Z,12.79
2023-02-18T05:10:23.186Z,12.83
2023-02-18T05:10:54.842Z,12.80
2023-02-18T05:11:26.527Z,12.77
2023-02-18T05:11:58.164Z,12.78
2023-02-18T05:12:29.809Z,12.75
2023-02-18T05:13:01.461Z,12.77
2023-02-18T05:13:33.154Z,12.76
2023-02-18T05:14:04.853Z,12.75
2023-02-18T05:14:36.529Z,12.75
2023-02-18T05:15:08.888Z,12.75
2023-02-18T05:15:40.771Z,12.75
2023-02-18T05:16:12.663Z,12.74
2023-02-18T05:16:44.382Z,12.76
2023-02-18T05:17:16.020Z,12.72
2023-02-18T05:17:47.653Z,12.75
2023-02-18T05:18:19.333Z,12.75
2023-02-18T05:18:51.121Z,12.74
2023-02-18T05:19:22.780Z,12.75
2023-02-18T05:19:54.409Z,12.76
2023-02-18T05:20:26.074Z,12.77
2023-02-18T05:20:57.774Z,12.78
2023-02-18T05:21:29.533Z,12.80
2023-02-18T05:22:01.177Z,12.80
2023-02-18T05:22:32.864Z,12.78
2023-02-18T05:23:04.505Z,12.75
2023-02-18T05:23:36.137Z,12.75
2023-02-18T05:24:08.737Z,12.76
2023-02-18T05:24:40.466Z,12.76
2023-02-18T05:25:12.108Z,12.78
2023-02-18T05:25:43.750Z,12.79
2023-02-18T05:26:15.392Z,12.81
2023-02-18T05:26:47.070Z,12.78
2023-02-18T05:27:18.765Z,12.78
2023-02-18T05:27:50.520Z,12.76
2023-02-18T05:28:22.389Z,12.76
2023-02-18T05:28:54.121Z,12.76
2023-02-18T05:29:25.994Z,12.77
2023-02-18T05:29:57.685Z,12.74
2023-02-18T05:30:29.466Z,12.75
2023-02-18T05:31:01.331Z,12.76
2023-02-18T05:31:33.263Z,12.74
2023-02-18T05:32:05.371Z,12.72
2023-02-18T05:32:37.123Z,12.70
2023-02-18T05:33:08.773Z,12.70
2023-02-18T05:33:40.621Z,12.70
2023-02-18T05:34:12.261Z,12.67
2023-02-18T05:34:44.001Z,12.67
2023-02-18T05:35:15.822Z,12.63
2023-02-18T05:35:48.914Z,12.61
2023-02-18T05:36:20.595Z,12.63
2023-02-18T05:36:52.904Z,12.64
2023-02-18T05:37:24.540Z,12.64
2023-02-18T05:37:56.201Z,12.61
2023-02-18T05:38:27.914Z,12.61
2023-02-18T05:38:59.611Z,12.57
2023-02-18T05:39:31.335Z,12.58
2023-02-18T05:40:04.236Z,12.55
2023-02-18T05:40:35.887Z,12.54
2023-02-18T05:41:07.523Z,12.57
2023-02-18T05:41:39.222Z,12.53
2023-02-18T05:42:10.987Z,12.50
2023-02-18T05:42:42.667Z,12.50
2023-02-18T05:43:14.328Z,12.49
2023-02-18T05:44:04.706Z,12.41
2023-02-18T05:44:36.760Z,12.41
2023-02-18T05:45:08.990Z,12.38
2023-02-18T05:45:40.642Z,12.36
2023-02-18T05:46:12.276Z,12.36
2023-02-18T05:46:44.180Z,12.32
2023-02-18T05:47:15.848Z,12.31
2023-02-18T05:47:47.631Z,12.32
2023-02-18T05:48:19.290Z,12.32
2023-02-18T05:48:51.001Z,12.31
2023-02-18T05:49:22.804Z,12.29
2023-02-18T05:49:55.989Z,12.30
2023-02-18T05:50:27.727Z,12.28
2023-02-18T05:50:59.370Z,12.29
2023-02-18T05:51:31.047Z,12.29
2023-02-18T05:52:04.344Z,12.27
2023-02-18T05:52:35.992Z,12.28
2023-02-18T05:53:07.757Z,12.27
2023-02-18T05:53:39.402Z,12.30
2023-02-18T05:54:11.054Z,12.31
2023-02-18T05:54:42.730Z,12.24
2023-02-18T05:55:14.440Z,12.23
2023-02-18T05:55:46.064Z,12.22
2023-02-18T05:56:17.782Z,12.23
2023-02-18T05:56:49.473Z,12.22
2023-02-18T05:57:21.151Z,12.19
2023-02-18T05:57:52.819Z,12.17
2023-02-18T05:58:24.474Z,12.16
2023-02-18T05:58:56.138Z,12.14
2023-02-18T05:59:28.609Z,12.15
2023-02-18T06:00:00.449Z,12.15
2023-02-18T06:00:32.518Z,12.12
2023-02-18T06:01:04.461Z,12.06
2023-02-18T06:01:36.222Z,12.07
2023-02-18T06:02:07.867Z,12.09
2023-02-18T06:02:39.727Z,12.05
2023-02-18T06:03:11.387Z,12.05
2023-02-18T06:03:43.087Z,12.04
2023-02-18T06:04:15.252Z,12.04
2023-02-18T06:04:46.952Z,12.02
2023-02-18T06:05:18.588Z,12.02
2023-02-18T06:05:51.356Z,12.02
2023-02-18T06:06:23.081Z,12.02
2023-02-18T06:06:54.873Z,12.01
2023-02-18T06:07:26.526Z,12.02
2023-02-18T06:07:58.179Z,12.00
2023-02-18T06:08:29.836Z,12.00
2023-02-18T06:09:01.801Z,11.98
2023-02-18T06:09:33.513Z,11.93
2023-02-18T06:10:06.568Z,11.87
2023-02-18T06:10:40.542Z,11.88
2023-02-18T06:11:12.212Z,11.88
2023-02-18T06:11:44.236Z,11.89
2023-02-18T06:12:15.901Z,11.84
2023-02-18T06:12:47.582Z,11.83
2023-02-18T06:13:19.280Z,11.86
2023-02-18T06:13:50.985Z,11.86
2023-02-18T06:14:22.801Z,11.81
2023-02-18T06:14:54.565Z,11.81
2023-02-18T06:15:26.285Z,11.82
2023-02-18T06:15:58.074Z,11.80
2023-02-18T06:16:30.131Z,11.79
2023-02-18T06:17:01.797Z,11.77
2023-02-18T06:17:33.721Z,11.77
2023-02-18T06:18:06.291Z,11.77
2023-02-18T06:18:38.021Z,11.76
2023-02-18T06:19:09.673Z,11.75
2023-02-18T06:19:41.653Z,11.76
2023-02-18T06:20:13.366Z,11.73
2023-02-18T06:20:47.292Z,11.73
2023-02-18T06:21:18.936Z,11.73
2023-02-18T06:21:50.573Z,11.72
2023-02-18T06:22:22.474Z,11.73
2023-02-18T06:22:54.084Z,11.74
2023-02-18T06:23:25.734Z,11.72
2023-02-18T06:23:57.402Z,11.73
2023-02-18T06:24:29.078Z,11.70
2023-02-18T06:25:00.712Z,11.66
2023-02-18T06:25:32.366Z,11.67
2023-02-18T06:26:04.194Z,11.70
2023-02-18T06:26:35.882Z,11.68
2023-02-18T06:27:07.818Z,11.69
2023-02-18T06:27:39.448Z,11.71
2023-02-18T06:28:11.173Z,11.68
2023-02-18T06:28:42.859Z,11.72
2023-02-18T06:29:14.502Z,11.70
2023-02-18T06:29:46.183Z,11.67
2023-02-18T06:30:18.221Z,11.66
2023-02-18T06:30:50.317Z,11.73
2023-02-18T06:31:22.109Z,11.75
2023-02-18T06:31:53.913Z,11.72
2023-02-18T06:32:25.688Z,11.73
2023-02-18T06:32:57.357Z,11.72
2023-02-18T06:33:28.988Z,11.70
2023-02-18T06:34:00.657Z,11.71
2023-02-18T06:34:32.343Z,11.72
2023-02-18T06:35:04.176Z,11.70
2023-02-18T06:35:35.942Z,11.71
2023-02-18T06:36:11.545Z,11.70
2023-02-18T06:36:43.367Z,11.73
2023-02-18T06:37:15.021Z,11.74
2023-02-18T06:37:46.655Z,11.75
2023-02-18T06:38:18.300Z,11.74
2023-02-18T06:38:49.985Z,11.76
2023-02-18T06:39:21.654Z,11.80
2023-02-18T06:39:53.320Z,11.78
2023-02-18T06:40:24.972Z,11.80
2023-02-18T06:40:56.658Z,11.77
2023-02-18T06:41:28.396Z,11.76
2023-02-18T06:42:00.450Z,11.77
2023-02-18T06:42:32.113Z,11.80
2023-02-18T06:43:03.849Z,11.76
2023-02-18T06:43:35.818Z,11.76
2023-02-18T06:44:08.209Z,11.78
2023-02-18T06:44:39.901Z,11.79
2023-02-18T06:45:11.588Z,11.85
2023-02-18T06:45:43.256Z,12.00
2023-02-18T06:46:14.919Z,11.99
2023-02-18T06:46:46.603Z,12.12
2023-02-18T06:47:18.314Z,12.04
2023-02-18T06:47:50.069Z,11.95
2023-02-18T06:48:22.324Z,11.93
2023-02-18T06:48:53.949Z,11.89
2023-02-18T06:49:25.644Z,11.88
2023-02-18T06:49:57.287Z,11.84
2023-02-18T06:50:28.908Z,11.85
2023-02-18T06:51:00.585Z,11.86
2023-02-18T06:51:32.232Z,11.89
2023-02-18T06:52:03.919Z,11.83
2023-02-18T06:52:38.015Z,11.85
2023-02-18T06:53:10.152Z,11.86
2023-02-18T06:53:42.770Z,11.86
2023-02-18T06:54:14.408Z,11.86
2023-02-18T06:54:46.043Z,11.86
2023-02-18T06:55:17.723Z,11.88
2023-02-18T06:55:49.631Z,11.86
2023-02-18T06:56:21.297Z,11.84
2023-02-18T06:56:53.756Z,11.85
2023-02-18T06:57:25.410Z,11.86
2023-02-18T06:57:57.083Z,11.79
2023-02-18T06:58:28.747Z,11.76
2023-02-18T06:59:00.428Z,11.78
2023-02-18T06:59:32.125Z,11.77
2023-02-18T07:00:05.743Z,11.81
2023-02-18T07:00:37.660Z,11.79
2023-02-18T07:01:09.793Z,11.78
2023-02-18T07:01:41.453Z,11.78
2023-02-18T07:02:13.814Z,11.78
2023-02-18T07:02:45.500Z,11.76
2023-02-18T07:03:17.609Z,11.79
2023-02-18T07:03:50.329Z,11.78
2023-02-18T07:04:22.090Z,11.74
2023-02-18T07:04:55.024Z,11.72
2023-02-18T07:05:26.712Z,11.72
2023-02-18T07:05:58.600Z,11.71
2023-02-18T07:06:30.994Z,11.71
2023-02-18T07:07:02.625Z,11.67
2023-02-18T07:07:34.438Z,11.70
2023-02-18T07:08:06.175Z,11.70
2023-02-18T07:08:39.089Z,11.72
2023-02-18T07:09:10.982Z,11.73
2023-02-18T07:09:42.601Z,11.73
2023-02-18T07:10:14.262Z,11.74
2023-02-18T07:10:46.032Z,11.76
2023-02-18T07:11:17.782Z,11.74
2023-02-18T07:11:49.438Z,11.71
2023-02-18T07:12:21.051Z,11.75
2023-02-18T07:12:52.709Z,11.76
2023-02-18T07:13:26.730Z,11.74
2023-02-18T07:13:58.383Z,11.75
2023-02-18T07:14:30.048Z,11.77
2023-02-18T07:15:01.798Z,11.78
2023-02-18T07:15:33.606Z,11.76
2023-02-18T07:16:05.708Z,11.74
2023-02-18T07:16:37.474Z,11.75
2023-02-18T07:17:09.174Z,11.77
2023-02-18T07:17:40.900Z,11.78
2023-02-18T07:18:12.543Z,11.80
2023-02-18T07:18:44.204Z,11.76
2023-02-18T07:19:16.298Z,11.76
2023-02-18T07:19:48.023Z,11.76
2023-02-18T07:20:21.169Z,11.77
2023-02-18T07:20:52.816Z,11.79
2023-02-18T07:21:24.615Z,11.81
2023-02-18T07:21:57.831Z,11.81
2023-02-18T07:22:29.562Z,11.80
2023-02-18T07:23:01.228Z,11.81
2023-02-18T07:23:33.141Z,11.80
2023-02-18T07:24:05.152Z,11.82